createdAt,value
2019-02-05T00:01:18.662Z,101490.48
2019-02-05T00:03:46.400Z,101493.69
2019-02-05T00:06:14.362Z,101499.45
2019-02-05T00:08:42.132Z,101498.30
2019-02-05T00:11:09.888Z,101495.70
2019-02-05T00:13:37.645Z,101496.80
2019-02-05T00:16:05.532Z,101506.02
2019-02-05T00:18:33.319Z,101497.20
2019-02-05T00:21:01.274Z,101498.11
2019-02-05T00:23:29.446Z,101497.77
2019-02-05T00:26:05.862Z,101500.00
2019-02-05T00:28:27.063Z,101488.52
2019-02-05T00:30:55.124Z,101487.83
2019-02-05T00:33:22.874Z,101479.64
2019-02-05T00:35:50.653Z,101480.30
2019-02-05T00:38:18.429Z,101480.44
2019-02-05T00:40:47.456Z,101477.32
2019-02-05T00:43:15.211Z,101475.75
2019-02-05T00:45:42.960Z,101474.28
2019-02-05T00:48:10.931Z,101469.75
2019-02-05T00:50:38.888Z,101467.33
2019-02-05T00:53:06.827Z,101467.24
2019-02-05T00:55:34.587Z,101469.64
2019-02-05T00:58:03.054Z,101471.09
2019-02-05T01:00:32.497Z,101476.88
2019-02-05T01:03:00.873Z,101473.41
2019-02-05T01:05:29.044Z,101468.45
2019-02-05T01:07:56.886Z,101465.34
2019-02-05T01:10:25.881Z,101474.88
2019-02-05T01:12:54.614Z,101473.55
2019-02-05T01:15:23.041Z,101469.52
2019-02-05T01:17:51.426Z,101466.65
2019-02-05T01:20:19.643Z,101463.79
2019-02-05T01:22:48.074Z,101463.41
2019-02-05T01:25:16.686Z,101453.07
2019-02-05T01:27:44.557Z,101457.64
2019-02-05T01:30:23.811Z,101451.95
2019-02-05T01:32:51.733Z,101450.94
2019-02-05T01:35:19.724Z,101445.17
2019-02-05T01:37:47.746Z,101451.53
2019-02-05T01:40:18.288Z,101441.82
2019-02-05T01:42:46.034Z,101437.27
2019-02-05T01:45:16.470Z,101430.94
2019-02-05T01:47:44.677Z,101439.17
2019-02-05T01:50:18.927Z,101438.98
2019-02-05T01:52:49.818Z,101420.78
2019-02-05T01:55:18.010Z,101430.98
2019-02-05T01:57:45.929Z,101428.70
2019-02-05T02:00:17.954Z,101424.12
2019-02-05T02:02:45.898Z,101426.51
2019-02-05T02:05:14.152Z,101433.29
2019-02-05T02:07:42.046Z,101435.38
2019-02-05T02:10:13.986Z,101432.97
2019-02-05T02:12:41.830Z,101427.73
2019-02-05T02:15:10.325Z,101424.66
2019-02-05T02:17:38.076Z,101427.57
2019-02-05T02:20:08.800Z,101417.52
2019-02-05T02:22:36.910Z,101418.47
2019-02-05T02:25:05.930Z,101423.70
2019-02-05T02:27:33.967Z,101429.70
2019-02-05T02:30:01.954Z,101416.33
2019-02-05T02:32:29.677Z,101405.63
2019-02-05T02:34:57.464Z,101398.41
2019-02-05T02:37:25.375Z,101400.91
2019-02-05T02:39:53.295Z,101404.43
2019-02-05T02:42:21.067Z,101398.99
2019-02-05T02:44:48.943Z,101392.47
2019-02-05T02:47:16.690Z,101397.01
2019-02-05T02:49:44.563Z,101390.42
2019-02-05T02:52:12.458Z,101393.95
2019-02-05T02:54:40.190Z,101389.77
2019-02-05T02:57:08.010Z,101390.16
2019-02-05T02:59:35.924Z,101380.73
2019-02-05T03:02:03.894Z,101392.63
2019-02-05T03:04:31.754Z,101386.17
2019-02-05T03:06:59.509Z,101393.11
2019-02-05T03:09:27.252Z,101380.45
2019-02-05T03:11:55.045Z,101381.77
2019-02-05T03:14:22.799Z,101388.30
2019-02-05T03:16:50.621Z,101383.68
2019-02-05T03:19:18.922Z,101376.59
2019-02-05T03:21:46.743Z,101382.89
2019-02-05T03:24:14.685Z,101378.64
2019-02-05T03:26:42.442Z,101377.50
2019-02-05T03:29:10.344Z,101392.23
2019-02-05T03:31:38.201Z,101387.34
2019-02-05T03:34:05.968Z,101378.02
2019-02-05T03:36:33.726Z,101374.91
2019-02-05T03:39:01.470Z,101385.09
2019-02-05T03:41:29.246Z,101393.33
2019-02-05T03:43:57.146Z,101397.27
2019-02-05T03:46:25.102Z,101403.83
2019-02-05T03:48:53.728Z,101400.03
2019-02-05T03:51:38.756Z,101401.14
2019-02-05T03:55:14.558Z,101403.16
2019-02-05T03:58:30.599Z,101407.25
2019-02-05T04:01:41.566Z,101402.92
2019-02-05T04:05:08.242Z,101400.09
2019-02-05T04:08:31.133Z,101393.81
2019-02-05T04:11:53.948Z,101394.50
2019-02-05T04:15:39.260Z,101398.20
2019-02-05T04:19:13.934Z,101403.80
2019-02-05T04:22:18.099Z,101401.02
2019-02-05T04:25:32.488Z,101404.70
2019-02-05T04:28:51.813Z,101403.64
2019-02-05T04:32:10.045Z,101412.48
2019-02-05T04:36:02.959Z,101428.22
2019-02-05T04:39:05.343Z,101434.53
2019-02-05T04:42:07.429Z,101438.92
2019-02-05T04:45:51.361Z,101449.31
2019-02-05T04:49:38.137Z,101446.08
2019-02-05T04:52:49.328Z,101441.21
2019-02-05T04:56:17.278Z,101424.93
2019-02-05T04:59:54.172Z,101418.47
2019-02-05T05:03:24.968Z,101425.80
2019-02-05T05:06:35.171Z,101426.70
2019-02-05T05:09:30.515Z,101406.93
2019-02-05T05:11:58.266Z,101406.19
2019-02-05T05:14:26.164Z,101406.53
2019-02-05T05:16:54.140Z,101406.67
2019-02-05T05:19:22.607Z,101403.81
2019-02-05T05:21:50.785Z,101394.70
2019-02-05T05:24:18.787Z,101402.92
2019-02-05T05:26:46.772Z,101399.86
2019-02-05T05:29:14.695Z,101405.17
2019-02-05T05:31:42.675Z,101405.31
2019-02-05T05:34:10.431Z,101399.91
2019-02-05T05:36:47.414Z,101398.38
2019-02-05T05:39:15.237Z,101387.03
2019-02-05T05:41:43.027Z,101386.56
2019-02-05T05:44:10.836Z,101378.09
2019-02-05T05:46:39.753Z,101380.09
2019-02-05T05:49:07.659Z,101387.75
2019-02-05T05:51:35.420Z,101392.21
2019-02-05T05:54:03.508Z,101391.12
2019-02-05T05:56:31.354Z,101384.14
2019-02-05T05:58:59.100Z,101380.30
2019-02-05T06:01:26.864Z,101387.14
2019-02-05T06:03:54.628Z,101378.76
2019-02-05T06:06:23.172Z,101375.31
2019-02-05T06:08:51.412Z,101381.39
2019-02-05T06:11:19.477Z,101382.30
2019-02-05T06:13:47.272Z,101389.09
2019-02-05T06:16:15.024Z,101390.27
2019-02-05T06:18:43.000Z,101386.75
2019-02-05T06:21:13.622Z,101390.30
2019-02-05T06:23:40.512Z,101378.11
2019-02-05T06:26:08.276Z,101392.51
2019-02-05T06:28:36.388Z,101397.52
2019-02-05T06:31:04.231Z,101393.73
2019-02-05T06:33:32.021Z,101394.03
2019-02-05T06:35:59.979Z,101391.25
2019-02-05T06:38:27.875Z,101383.70
2019-02-05T06:40:55.614Z,101382.56
2019-02-05T06:43:23.399Z,101388.84
2019-02-05T06:45:51.190Z,101387.70
2019-02-05T06:48:18.971Z,101382.70
2019-02-05T06:50:49.104Z,101387.20
2019-02-05T06:53:16.936Z,101391.41
2019-02-05T06:55:44.909Z,101393.50
2019-02-05T06:58:12.771Z,101394.83
2019-02-05T07:00:40.533Z,101394.48
2019-02-05T07:03:08.699Z,101400.52
2019-02-05T07:05:36.937Z,101401.47
2019-02-05T07:08:04.764Z,101393.88
2019-02-05T07:10:32.524Z,101394.73
2019-02-05T07:13:00.272Z,101395.02
2019-02-05T07:15:31.234Z,101397.46
2019-02-05T07:18:02.048Z,101400.92
2019-02-05T07:20:29.823Z,101397.16
2019-02-05T07:22:57.596Z,101394.00
2019-02-05T07:25:25.425Z,101386.48
2019-02-05T07:27:53.177Z,101398.77
2019-02-05T07:30:22.438Z,101394.72
2019-02-05T07:32:50.258Z,101400.34
2019-02-05T07:35:18.058Z,101400.86
2019-02-05T07:37:46.258Z,101411.78
2019-02-05T07:40:16.281Z,101426.45
2019-02-05T07:42:44.085Z,101432.61
2019-02-05T07:45:15.564Z,101434.52
2019-02-05T07:47:43.432Z,101454.55
2019-02-05T07:50:15.642Z,101449.06
2019-02-05T07:52:43.932Z,101455.52
2019-02-05T07:55:12.067Z,101454.88
2019-02-05T07:57:40.158Z,101454.34
2019-02-05T08:00:13.872Z,101458.03
2019-02-05T08:02:41.644Z,101457.63
2019-02-05T08:05:14.606Z,101454.09
2019-02-05T08:07:42.468Z,101460.03
2019-02-05T08:10:11.977Z,101462.67
2019-02-05T08:12:39.763Z,101461.54
2019-02-05T08:15:10.854Z,101456.41
2019-02-05T08:17:39.057Z,101459.74
2019-02-05T08:20:07.159Z,101450.14
2019-02-05T08:22:35.310Z,101456.03
2019-02-05T08:25:03.370Z,101456.98
2019-02-05T08:27:31.120Z,101457.04
2019-02-05T08:30:01.229Z,101461.36
2019-02-05T08:32:29.263Z,101456.77
2019-02-05T08:34:57.362Z,101472.15
2019-02-05T08:37:25.144Z,101466.28
2019-02-05T08:39:52.958Z,101474.77
2019-02-05T08:42:20.711Z,101476.43
2019-02-05T08:44:48.531Z,101474.95
2019-02-05T08:47:16.307Z,101476.64
2019-02-05T08:49:44.075Z,101480.00
2019-02-05T08:52:11.979Z,101487.66
2019-02-05T08:54:40.095Z,101478.44
2019-02-05T08:57:07.903Z,101483.69
2019-02-05T08:59:35.661Z,101487.32
2019-02-05T09:02:03.635Z,101487.84
2019-02-05T09:04:31.448Z,101488.84
2019-02-05T09:06:59.187Z,101491.67
2019-02-05T09:09:26.982Z,101493.75
2019-02-05T09:11:54.825Z,101491.33
2019-02-05T09:14:22.883Z,101488.74
2019-02-05T09:16:50.693Z,101485.45
2019-02-05T09:19:18.467Z,101480.72
2019-02-05T09:21:46.313Z,101471.89
2019-02-05T09:24:14.069Z,101478.61
2019-02-05T09:26:41.855Z,101479.01
2019-02-05T09:29:09.675Z,101471.27
2019-02-05T09:31:37.571Z,101478.84
2019-02-05T09:34:05.374Z,101477.92
2019-02-05T09:36:33.196Z,101482.53
2019-02-05T09:39:00.997Z,101490.31
2019-02-05T09:41:28.860Z,101481.25
2019-02-05T09:44:00.315Z,101489.98
2019-02-05T09:46:28.128Z,101493.67
2019-02-05T09:48:55.927Z,101497.52
2019-02-05T09:51:24.032Z,101501.89
2019-02-05T09:53:51.792Z,101506.73
2019-02-05T09:56:19.578Z,101509.70
2019-02-05T09:58:47.371Z,101516.36
2019-02-05T10:01:15.184Z,101509.47
2019-02-05T10:03:42.961Z,101510.87
2019-02-05T10:06:10.777Z,101520.78
2019-02-05T10:08:38.601Z,101524.63
2019-02-05T10:11:06.353Z,101534.91
2019-02-05T10:13:34.112Z,101533.61
2019-02-05T10:16:02.003Z,101531.13
2019-02-05T10:18:29.903Z,101538.87
2019-02-05T10:20:57.758Z,101530.97
2019-02-05T10:23:25.520Z,101530.60
2019-02-05T10:25:53.286Z,101527.08
2019-02-05T10:28:21.434Z,101521.93
2019-02-05T10:30:49.298Z,101512.25
2019-02-05T10:33:17.070Z,101525.73
2019-02-05T10:35:45.110Z,101531.98
2019-02-05T10:38:12.884Z,101527.45
2019-02-05T10:40:40.656Z,101522.50
2019-02-05T10:43:08.539Z,101525.16
2019-02-05T10:45:36.903Z,101521.19
2019-02-05T10:48:07.436Z,101529.11
2019-02-05T10:50:35.288Z,101532.09
2019-02-05T10:53:03.910Z,101530.81
2019-02-05T10:55:31.830Z,101527.28
2019-02-05T10:57:59.668Z,101530.64
2019-02-05T11:00:29.299Z,101530.55
2019-02-05T11:02:59.495Z,101529.75
2019-02-05T11:05:29.407Z,101527.73
2019-02-05T11:07:57.459Z,101526.26
2019-02-05T11:10:25.247Z,101530.60
2019-02-05T11:12:53.025Z,101528.73
2019-02-05T11:15:24.047Z,101532.91
2019-02-05T11:17:51.813Z,101526.39
2019-02-05T11:20:22.349Z,101526.75
2019-02-05T11:22:50.497Z,101522.30
2019-02-05T11:25:20.898Z,101523.35
2019-02-05T11:27:48.886Z,101525.34
2019-02-05T11:30:38.294Z,101523.72
2019-02-05T11:33:06.375Z,101524.44
2019-02-05T11:35:34.254Z,101529.96
2019-02-05T11:38:02.344Z,101532.05
2019-02-05T11:40:32.318Z,101531.45
2019-02-05T11:43:00.174Z,101530.00
2019-02-05T11:45:28.379Z,101525.34
2019-02-05T11:47:57.920Z,101525.06
2019-02-05T11:50:25.828Z,101522.45
2019-02-05T11:52:53.871Z,101523.80
2019-02-05T11:55:23.758Z,101524.16
2019-02-05T11:57:51.606Z,101514.27
2019-02-05T12:00:32.864Z,101515.23
2019-02-05T12:02:59.122Z,101508.59
2019-02-05T12:05:26.929Z,101512.72
2019-02-05T12:07:55.082Z,101509.24
2019-02-05T12:10:22.968Z,101502.03
2019-02-05T12:12:50.761Z,101502.03
2019-02-05T12:15:18.878Z,101506.03
2019-02-05T12:17:46.660Z,101499.30
2019-02-05T12:20:14.530Z,101493.65
2019-02-05T12:22:42.493Z,101489.07
2019-02-05T12:25:13.505Z,101493.60
2019-02-05T12:27:41.474Z,101497.98
2019-02-05T12:30:17.818Z,101494.22
2019-02-05T12:32:45.764Z,101492.56
2019-02-05T12:35:13.657Z,101488.66
2019-02-05T12:37:41.474Z,101488.13
2019-02-05T12:40:10.843Z,101498.13
2019-02-05T12:42:38.946Z,101479.20
2019-02-05T12:45:10.707Z,101484.89
2019-02-05T12:47:38.492Z,101467.69
2019-02-05T12:50:14.615Z,101469.02
2019-02-05T12:52:42.427Z,101461.09
2019-02-05T12:55:16.254Z,101464.71
2019-02-05T12:57:39.994Z,101462.48
2019-02-05T13:00:15.798Z,101471.19
2019-02-05T13:02:43.704Z,101469.28
2019-02-05T13:05:11.989Z,101469.56
2019-02-05T13:07:39.819Z,101468.72
2019-02-05T13:10:10.752Z,101465.38
2019-02-05T13:12:38.864Z,101465.84
2019-02-05T13:15:07.447Z,101467.84
2019-02-05T13:17:35.412Z,101470.73
2019-02-05T13:20:06.829Z,101468.13
2019-02-05T13:22:34.747Z,101469.42
2019-02-05T13:25:03.463Z,101465.43
2019-02-05T13:27:31.671Z,101471.47
2019-02-05T13:29:59.453Z,101478.00
2019-02-05T13:32:27.417Z,101482.20
2019-02-05T13:34:55.539Z,101480.48
2019-02-05T13:37:23.311Z,101480.13
2019-02-05T13:39:51.109Z,101479.14
2019-02-05T13:42:18.888Z,101486.70
2019-02-05T13:44:46.906Z,101497.53
2019-02-05T13:47:14.928Z,101495.70
2019-02-05T13:49:42.734Z,101497.36
2019-02-05T13:52:10.834Z,101497.27
2019-02-05T13:54:38.602Z,101501.46
2019-02-05T13:57:06.418Z,101501.67
2019-02-05T13:59:34.206Z,101512.72
2019-02-05T14:02:02.013Z,101503.38
2019-02-05T14:04:29.827Z,101512.78
2019-02-05T14:06:57.756Z,101514.11
2019-02-05T14:09:25.722Z,101514.64
2019-02-05T14:11:53.517Z,101513.61
2019-02-05T14:14:23.104Z,101511.41
2019-02-05T14:16:50.889Z,101512.22
2019-02-05T14:19:18.838Z,101510.70
2019-02-05T14:21:46.792Z,101510.34
2019-02-05T14:24:14.627Z,101517.17
2019-02-05T14:26:42.418Z,101520.09
2019-02-05T14:29:12.235Z,101514.47
2019-02-05T14:31:39.994Z,101520.97
2019-02-05T14:34:07.770Z,101531.82
2019-02-05T14:36:35.687Z,101529.63
2019-02-05T14:39:08.154Z,101530.59
2019-02-05T14:41:36.013Z,101518.96
2019-02-05T14:44:04.596Z,101524.70
2019-02-05T14:46:32.472Z,101535.14
2019-02-05T14:49:00.403Z,101532.67
2019-02-05T14:51:28.410Z,101521.02
2019-02-05T14:53:56.674Z,101524.34
2019-02-05T14:56:24.435Z,101526.21
2019-02-05T14:58:52.389Z,101520.66
2019-02-05T15:01:20.147Z,101529.27
2019-02-05T15:03:47.914Z,101528.37
2019-02-05T15:06:15.719Z,101527.93
2019-02-05T15:08:43.519Z,101526.50
2019-02-05T15:11:11.291Z,101531.82
2019-02-05T15:13:39.229Z,101534.58
2019-02-05T15:16:06.977Z,101539.73
2019-02-05T15:18:34.949Z,101546.32
2019-02-05T15:21:02.750Z,101549.16
2019-02-05T15:23:30.520Z,101543.70
2019-02-05T15:25:58.345Z,101545.31
2019-02-05T15:28:26.087Z,101544.30
2019-02-05T15:30:53.863Z,101537.12
2019-02-05T15:33:41.409Z,101548.63
2019-02-05T15:36:31.619Z,101548.10
2019-02-05T15:38:59.491Z,101553.08
2019-02-05T15:41:27.304Z,101559.17
2019-02-05T15:43:55.046Z,101554.84
2019-02-05T15:46:22.794Z,101559.69
2019-02-05T15:48:50.924Z,101563.47
2019-02-05T15:51:18.699Z,101559.90
2019-02-05T15:53:46.731Z,101552.77
2019-02-05T15:56:14.507Z,101558.75
2019-02-05T15:58:42.487Z,101558.38
2019-02-05T16:01:10.429Z,101555.87
2019-02-05T16:03:38.172Z,101559.90
2019-02-05T16:06:06.304Z,101566.47
2019-02-05T16:08:34.056Z,101568.63
2019-02-05T16:11:01.983Z,101570.42
2019-02-05T16:13:29.930Z,101567.84
2019-02-05T16:15:57.903Z,101563.33
2019-02-05T16:18:25.722Z,101566.53
2019-02-05T16:20:53.712Z,101564.14
2019-02-05T16:23:21.705Z,101567.22
2019-02-05T16:25:49.658Z,101560.22
2019-02-05T16:28:17.488Z,101567.38
2019-02-05T16:30:45.422Z,101566.81
2019-02-05T16:33:13.220Z,101573.53
2019-02-05T16:35:41.119Z,101575.09
2019-02-05T16:38:09.018Z,101577.16
2019-02-05T16:40:37.283Z,101583.80
2019-02-05T16:43:05.344Z,101576.75
2019-02-05T16:45:33.175Z,101581.67
2019-02-05T16:48:00.977Z,101583.83
2019-02-05T16:50:32.703Z,101585.95
2019-02-05T16:53:00.496Z,101583.70
2019-02-05T16:55:28.838Z,101589.44
2019-02-05T16:57:56.656Z,101596.39
2019-02-05T17:00:30.284Z,101596.13
2019-02-05T17:02:58.206Z,101594.78
2019-02-05T17:05:27.691Z,101599.73
2019-02-05T17:07:55.687Z,101602.52
2019-02-05T17:10:23.830Z,101600.25
2019-02-05T17:12:51.908Z,101611.19
2019-02-05T17:15:19.759Z,101618.41
2019-02-05T17:17:47.501Z,101618.27
2019-02-05T17:20:21.875Z,101609.30
2019-02-05T17:22:50.366Z,101626.80
2019-02-05T17:25:19.401Z,101626.61
2019-02-05T17:27:47.825Z,101626.75
2019-02-05T17:30:24.782Z,101626.53
2019-02-05T17:32:52.545Z,101628.91
2019-02-05T17:35:20.373Z,101633.94
2019-02-05T17:37:49.619Z,101625.83
2019-02-05T17:40:19.641Z,101623.57
2019-02-05T17:42:48.007Z,101627.34
2019-02-05T17:45:21.813Z,101630.50
2019-02-05T17:47:50.131Z,101628.86
2019-02-05T17:50:18.053Z,101623.68
2019-02-05T17:52:45.920Z,101631.53
2019-02-05T17:55:14.187Z,101635.31
2019-02-05T17:57:42.065Z,101636.02
2019-02-05T18:00:28.807Z,101641.98
2019-02-05T18:02:56.615Z,101642.28
2019-02-05T18:05:24.541Z,101644.91
2019-02-05T18:07:52.738Z,101642.28
2019-02-05T18:10:23.913Z,101644.73
2019-02-05T18:12:51.777Z,101650.36
2019-02-05T18:15:23.371Z,101650.28
2019-02-05T18:17:51.605Z,101652.73
2019-02-05T18:20:19.416Z,101649.53
2019-02-05T18:22:47.215Z,101651.13
2019-02-05T18:25:16.234Z,101651.95
2019-02-05T18:27:44.140Z,101649.43
2019-02-05T18:30:21.836Z,101652.83
2019-02-05T18:32:49.720Z,101646.64
2019-02-05T18:35:17.516Z,101656.98
2019-02-05T18:37:46.618Z,101649.94
2019-02-05T18:40:16.023Z,101659.34
2019-02-05T18:42:43.775Z,101652.55
2019-02-05T18:45:13.804Z,101653.59
2019-02-05T18:47:41.537Z,101655.34
2019-02-05T18:50:12.988Z,101650.93
2019-02-05T18:52:41.219Z,101645.97
2019-02-05T18:55:10.634Z,101644.51
2019-02-05T18:57:38.672Z,101645.42
2019-02-05T19:00:16.020Z,101653.00
2019-02-05T19:02:43.869Z,101647.66
2019-02-05T19:05:12.040Z,101643.72
2019-02-05T19:07:40.172Z,101648.20
2019-02-05T19:10:10.831Z,101645.97
2019-02-05T19:12:38.599Z,101649.73
2019-02-05T19:15:13.245Z,101644.47
2019-02-05T19:17:41.055Z,101647.83
2019-02-05T19:20:09.068Z,101655.57
2019-02-05T19:22:37.243Z,101650.57
2019-02-05T19:25:25.595Z,101656.65
2019-02-05T19:27:53.391Z,101651.47
2019-02-05T19:30:23.372Z,101652.54
2019-02-05T19:32:51.148Z,101659.23
2019-02-05T19:35:19.235Z,101657.77
2019-02-05T19:37:47.173Z,101655.52
2019-02-05T19:40:15.277Z,101665.72
2019-02-05T19:42:43.065Z,101665.27
2019-02-05T19:45:39.503Z,101665.89
2019-02-05T19:48:11.327Z,101666.09
2019-02-05T19:50:39.151Z,101664.70
2019-02-05T19:53:06.918Z,101674.63
2019-02-05T19:55:34.828Z,101671.55
2019-02-05T19:58:02.585Z,101672.88
2019-02-05T20:00:30.370Z,101669.75
2019-02-05T20:02:58.146Z,101666.98
2019-02-05T20:05:26.021Z,101671.25
2019-02-05T20:07:53.843Z,101665.03
2019-02-05T20:10:21.751Z,101667.63
2019-02-05T20:12:49.556Z,101674.80
2019-02-05T20:15:19.623Z,101669.84
2019-02-05T20:17:47.322Z,101672.41
2019-02-05T20:20:15.322Z,101672.90
2019-02-05T20:22:43.254Z,101681.96
2019-02-05T20:25:12.426Z,101672.41
2019-02-05T20:27:40.278Z,101680.56
2019-02-05T20:30:11.719Z,101673.42
2019-02-05T20:32:39.540Z,101686.66
2019-02-05T20:35:07.596Z,101688.08
2019-02-05T20:37:36.328Z,101682.76
2019-02-05T20:40:10.641Z,101685.03
2019-02-05T20:42:38.420Z,101686.17
2019-02-05T20:45:07.394Z,101685.66
2019-02-05T20:47:35.123Z,101683.41
2019-02-05T20:50:04.976Z,101692.48
2019-02-05T20:52:32.746Z,101694.02
2019-02-05T20:55:00.587Z,101691.02
2019-02-05T20:57:28.396Z,101692.69
2019-02-05T20:59:56.300Z,101684.92
2019-02-05T21:02:24.081Z,101691.69
2019-02-05T21:04:51.950Z,101698.78
2019-02-05T21:07:19.752Z,101689.59
2019-02-05T21:09:47.566Z,101691.50
2019-02-05T21:12:15.338Z,101696.20
2019-02-05T21:14:43.154Z,101697.05
2019-02-05T21:17:11.278Z,101696.91
2019-02-05T21:19:39.070Z,101692.77
2019-02-05T21:22:08.889Z,101688.29
2019-02-05T21:24:36.663Z,101686.33
2019-02-05T21:27:04.475Z,101686.67
2019-02-05T21:29:32.271Z,101689.67
2019-02-05T21:32:00.089Z,101690.87
2019-02-05T21:34:27.935Z,101692.28
2019-02-05T21:36:55.719Z,101695.15
2019-02-05T21:39:23.492Z,101696.85
2019-02-05T21:41:54.034Z,101692.76
2019-02-05T21:44:21.785Z,101683.80
2019-02-05T21:46:49.575Z,101685.13
2019-02-05T21:49:17.336Z,101688.00
2019-02-05T21:51:45.457Z,101680.50
2019-02-05T21:54:13.271Z,101690.81
2019-02-05T21:56:41.180Z,101692.48
2019-02-05T21:59:08.982Z,101691.15
2019-02-05T22:01:36.782Z,101691.17
2019-02-05T22:04:04.716Z,101682.66
2019-02-05T22:06:32.778Z,101691.03
2019-02-05T22:09:00.622Z,101687.98
2019-02-05T22:11:28.821Z,101682.17
2019-02-05T22:13:56.680Z,101679.38
2019-02-05T22:16:24.485Z,101683.17
2019-02-05T22:18:52.248Z,101682.09
2019-02-05T22:21:20.280Z,101680.83
2019-02-05T22:23:48.040Z,101683.27
2019-02-05T22:26:15.782Z,101682.94
2019-02-05T22:28:43.573Z,101675.19
2019-02-05T22:31:11.357Z,101680.95
2019-02-05T22:33:39.175Z,101682.62
2019-02-05T22:36:07.334Z,101685.28
2019-02-05T22:38:36.486Z,101681.09
2019-02-05T22:41:04.336Z,101682.98
2019-02-05T22:43:32.110Z,101682.03
2019-02-05T22:46:00.023Z,101691.58
2019-02-05T22:48:28.089Z,101695.69
2019-02-05T22:50:55.890Z,101687.84
2019-02-05T22:53:23.946Z,101683.36
2019-02-05T22:55:51.713Z,101687.02
2019-02-05T22:58:20.104Z,101691.44
2019-02-05T23:01:28.275Z,101684.41
2019-02-05T23:04:19.723Z,101691.58
2019-02-05T23:07:06.551Z,101690.02
2019-02-05T23:09:52.861Z,101682.75
2019-02-05T23:12:52.572Z,101679.72
2019-02-05T23:15:23.152Z,101684.42
2019-02-05T23:17:50.953Z,101677.90
2019-02-05T23:20:21.171Z,101682.09
2019-02-05T23:22:49.489Z,101677.11
2019-02-05T23:25:17.317Z,101682.66
2019-02-05T23:27:45.229Z,101675.01
2019-02-05T23:30:22.629Z,101676.76
2019-02-05T23:32:50.435Z,101685.32
2019-02-05T23:35:18.317Z,101679.59
2019-02-05T23:37:46.399Z,101678.52
2019-02-05T23:40:14.529Z,101684.13
2019-02-05T23:42:42.293Z,101682.44
2019-02-05T23:45:10.765Z,101676.92
2019-02-05T23:47:38.738Z,101677.77
2019-02-05T23:50:10.031Z,101684.13
2019-02-05T23:52:37.967Z,101677.11
2019-02-05T23:55:08.302Z,101677.61
2019-02-05T23:57:36.075Z,101675.78
